Time;durP1;ratioP1;P1;durP2;ratioP2;P2;SDS_P1;SDS_P2;PMS_P1;PMS_P2;Temp;Humidity;BMP_temperature;BMP_pressure;BME280_temperature;BME280_humidity;BME280_pressure;Samples;Min_cycle;Max_cycle;Signal;HPM_P1;HPM_P2
2023/03/31 00:00:25;;;;;;;18.40;3.10;;;;;;;18.82;50.98;100322.38;5070101;28;20021;-68
2023/03/31 00:02:52;;;;;;;14.97;2.43;;;;;;;18.63;51.37;100316.34;5068926;28;20491;-69
2023/03/31 00:05:20;;;;;;;21.27;3.07;;;;;;;18.36;51.88;100308.88;5051638;28;20024;-69
2023/03/31 00:07:47;;;;;;;14.60;2.80;;;;;;;18.23;51.97;100302.50;5053659;28;20086;-68
2023/03/31 00:10:13;;;;;;;21.00;3.33;;;;;;;18.98;50.28;100295.97;5070088;28;20468;-69
2023/03/31 00:12:39;;;;;;;21.77;3.17;;;;;;;19.02;50.40;100295.81;5067968;28;20078;-68
2023/03/31 00:15:05;;;;;;;27.97;3.70;;;;;;;19.65;47.96;100284.41;5051187;28;20029;-69
2023/03/31 00:17:32;;;;;;;21.43;3.23;;;;;;;19.00;49.49;100287.97;5050479;28;20028;-69
2023/03/31 00:19:59;;;;;;;15.60;3.30;;;;;;;18.08;52.77;100278.53;5051418;28;20071;-69
2023/03/31 00:22:28;;;;;;;20.50;3.50;;;;;;;18.56;51.50;100275.25;5052240;28;20463;-69
2023/03/31 00:24:54;;;;;;;20.93;3.47;;;;;;;19.28;49.18;100265.25;5069758;28;20464;-69
2023/03/31 00:27:19;;;;;;;14.87;3.23;;;;;;;18.98;50.10;100258.88;5070554;28;20044;-69
2023/03/31 00:29:45;;;;;;;19.23;3.30;;;;;;;19.27;50.58;100258.25;5051208;28;20059;-69
2023/03/31 00:32:10;;;;;;;21.07;3.47;;;;;;;18.44;51.73;100253.78;5051382;28;20028;-68
2023/03/31 00:34:37;;;;;;;14.87;3.43;;;;;;;18.19;53.63;100254.19;5070153;28;20029;-69
2023/03/31 00:37:04;;;;;;;13.40;2.73;;;;;;;18.51;52.57;100248.19;5071326;28;20024;-69
2023/03/31 00:39:34;;;;;;;16.10;3.40;;;;;;;17.85;55.30;100239.16;5050059;28;20020;-69
2023/03/31 00:42:02;;;;;;;17.17;3.37;;;;;;;18.53;53.49;100235.72;5046645;28;20031;-70
2023/03/31 00:44:32;;;;;;;13.33;2.83;;;;;;;18.10;55.11;100229.06;5043647;28;20025;-69
2023/03/31 00:47:14;;;;;;;15.70;3.60;;;;;;;17.51;57.47;100223.16;5045226;28;20163;-69
2023/03/31 00:49:44;;;;;;;19.08;4.75;;;;;;;17.95;56.19;100224.56;5064253;28;20059;-69
2023/03/31 00:52:36;;;;;;;14.23;2.97;;;;;;;18.16;56.10;100221.75;5066907;28;20024;-69
2023/03/31 00:55:09;;;;;;;20.03;3.30;;;;;;;18.22;55.27;100216.16;5048926;28;20077;-69
2023/03/31 00:57:38;;;;;;;16.00;3.40;;;;;;;17.95;55.83;100216.63;5067793;28;20115;-69
2023/03/31 01:00:17;;;;;;;11.97;2.63;;;;;;;18.53;54.48;100203.97;5048268;28;20082;-69
2023/03/31 01:02:51;;;;;;;13.87;2.97;;;;;;;18.02;56.14;100188.94;5049698;28;20059;-69
2023/03/31 01:05:22;;;;;;;11.83;3.10;;;;;;;18.24;56.29;100193.13;5050159;28;20036;-69
2023/03/31 01:07:50;;;;;;;13.90;2.75;;;;;;;18.70;54.90;100190.69;5049180;28;20020;-69
2023/03/31 01:10:16;;;;;;;13.73;3.17;;;;;;;18.19;57.27;100187.22;5045761;28;20048;-69
2023/03/31 01:12:46;;;;;;;6.70;2.10;;;;;;;17.53;59.13;100186.06;5056712;28;20025;-69
2023/03/31 01:15:11;;;;;;;11.47;2.50;;;;;;;17.86;58.63;100177.41;5062054;28;20094;-69
2023/03/31 01:17:37;;;;;;;10.87;2.83;;;;;;;17.90;59.63;100173.66;5061780;28;20044;-69
2023/03/31 01:20:24;;;;;;;11.63;2.63;;;;;;;18.63;57.01;100160.19;5068832;28;20359;-70
2023/03/31 01:23:05;;;;;;;17.63;2.90;;;;;;;17.69;61.66;100155.31;5048921;28;20036;-69
2023/03/31 01:26:00;;;;;;;14.17;3.00;;;;;;;17.64;60.76;100149.44;5064371;28;20397;-72
2023/03/31 01:29:17;;;;;;;9.93;3.10;;;;;;;18.29;57.99;100148.78;5043768;28;20115;-70
2023/03/31 01:32:10;;;;;;;15.10;3.70;;;;;;;17.30;63.26;100143.19;4982104;28;20091;-69
2023/03/31 01:34:45;;;;;;;;;;;;;;;18.27;59.38;100134.75;5058920;28;20032;-69
2023/03/31 01:37:38;;;;;;;21.07;3.60;;;;;;;17.55;62.60;100132.22;5047564;28;19927;-69
2023/03/31 01:40:37;;;;;;;18.48;3.63;;;;;;;18.47;60.67;100126.59;5043641;28;20056;-70
2023/03/31 01:43:24;;;;;;;13.37;2.50;;;;;;;17.70;62.28;100119.19;5044835;28;20034;-69
2023/03/31 01:46:32;;;;;;;14.40;2.70;;;;;;;18.34;59.71;100104.41;5067239;28;20039;-69
2023/03/31 01:49:13;;;;;;;14.40;2.87;;;;;;;17.89;62.87;100104.09;5061017;28;20059;-69
2023/03/31 01:51:50;;;;;;;13.17;2.57;;;;;;;17.44;64.69;100095.78;5078395;28;20384;-70
2023/03/31 01:54:22;;;;;;;8.83;2.20;;;;;;;17.56;63.55;100090.84;5082869;28;20028;-70
2023/03/31 01:57:13;;;;;;;14.47;2.60;;;;;;;18.38;60.22;100079.50;5079807;28;20500;-71
2023/03/31 01:59:39;;;;;;;19.13;2.60;;;;;;;18.87;59.64;100080.34;5080379;28;20036;-71
2023/03/31 02:02:36;;;;;;;12.67;2.43;;;;;;;17.84;63.25;100073.53;5084090;28;20362;-71
2023/03/31 02:05:08;;;;;;;17.50;3.20;;;;;;;17.77;64.71;100065.91;5075579;28;20573;-70
2023/03/31 02:07:46;;;;;;;16.77;2.58;;;;;;;18.04;62.77;100054.88;5080237;28;20021;-69
2023/03/31 02:10:14;;;;;;;17.60;3.00;;;;;;;17.90;65.07;100052.06;5080170;28;20020;-69
2023/03/31 02:12:42;;;;;;;19.00;3.10;;;;;;;18.16;64.29;100047.22;5081599;28;20115;-68
2023/03/31 02:15:14;;;;;;;19.13;3.97;;;;;;;18.05;63.96;100035.44;5080146;28;20471;-68
2023/03/31 02:17:44;;;;;;;16.57;4.17;;;;;;;17.76;65.25;100029.88;5080014;28;20024;-68
2023/03/31 02:20:14;;;;;;;16.97;2.70;;;;;;;16.35;69.28;100022.72;5086974;28;20016;-68
2023/03/31 02:22:44;;;;;;;20.03;2.20;;;;;;;17.52;64.81;100020.59;5085948;28;20016;-68
2023/03/31 02:25:13;;;;;;;12.83;2.20;;;;;;;18.35;61.31;100002.09;5085551;28;20035;-68
2023/03/31 02:27:42;;;;;;;10.03;2.50;;;;;;;17.79;63.35;99987.41;5087382;28;20034;-68
2023/03/31 02:30:09;;;;;;;14.50;2.70;;;;;;;18.27;61.01;99978.69;5085802;28;20036;-69
2023/03/31 02:32:40;;;;;;;10.87;2.67;;;;;;;17.35;64.66;99966.84;5084342;28;21570;-68
2023/03/31 02:35:11;;;;;;;10.20;2.10;;;;;;;18.35;61.04;99957.97;5086445;28;20460;-68
2023/03/31 02:37:37;;;;;;;12.27;2.80;;;;;;;17.54;63.99;99955.31;5088602;28;20038;-68
2023/03/31 02:40:13;;;;;;;15.90;2.97;;;;;;;17.13;67.24;99952.09;5084058;28;20020;-68
2023/03/31 02:42:40;;;;;;;13.57;2.90;;;;;;;17.46;64.95;99943.34;5088428;28;20031;-69
2023/03/31 02:45:26;;;;;;;15.17;3.57;;;;;;;17.29;66.15;99931.03;5078537;28;20589;-69
2023/03/31 02:47:53;;;;;;;10.67;2.90;;;;;;;17.18;66.15;99932.53;5082825;28;20032;-68
2023/03/31 02:50:29;;;;;;;16.77;2.63;;;;;;;17.75;64.39;99922.44;5067164;28;20105;-68
2023/03/31 02:53:12;;;;;;;12.97;2.87;;;;;;;17.84;62.84;99913.16;5056590;28;20023;-67
2023/03/31 02:55:57;;;;;;;11.60;2.70;;;;;;;17.35;64.68;99903.47;5050449;28;20031;-68
2023/03/31 02:58:40;;;;;;;14.83;2.83;;;;;;;17.61;64.41;99887.97;5052572;28;20569;-68
2023/03/31 03:01:10;;;;;;;15.93;3.20;;;;;;;18.02;62.19;99871.66;5066356;28;20028;-67
2023/03/31 03:03:54;;;;;;;21.83;3.90;;;;;;;17.72;62.95;99875.06;5049118;28;20439;-68
2023/03/31 03:06:56;;;;;;;25.03;4.13;;;;;;;17.03;65.87;99881.38;5066262;28;20035;-68
2023/03/31 03:09:49;;;;;;;13.93;4.10;;;;;;;17.61;62.09;99872.13;5031024;28;20050;-68
2023/03/31 03:12:39;;;;;;;24.05;4.57;;;;;;;18.06;62.47;99867.91;5065321;28;20086;-67
2023/03/31 03:15:12;;;;;;;13.87;3.27;;;;;;;16.88;65.63;99867.16;5064943;28;20054;-67
2023/03/31 03:17:44;;;;;;;16.37;3.50;;;;;;;17.85;64.41;99859.34;5049439;28;20025;-68
2023/03/31 03:20:11;;;;;;;11.27;3.43;;;;;;;16.96;65.95;99854.44;5047337;28;20047;-68
2023/03/31 03:22:38;;;;;;;12.70;3.07;;;;;;;17.89;62.02;99842.38;5051352;28;20024;-68
2023/03/31 03:25:05;;;;;;;9.97;2.90;;;;;;;17.58;63.15;99840.59;5049192;28;20028;-67
2023/03/31 03:27:31;;;;;;;16.63;3.03;;;;;;;17.99;60.67;99834.81;5069518;28;20378;-68
2023/03/31 03:29:57;;;;;;;17.67;3.47;;;;;;;17.97;61.15;99823.50;5068134;28;20036;-68
2023/03/31 03:32:22;;;;;;;9.10;3.13;;;;;;;18.66;58.03;99818.59;5052338;28;20388;-68
2023/03/31 03:34:48;;;;;;;17.67;3.60;;;;;;;18.55;58.58;99815.75;5049753;28;20020;-68
2023/03/31 03:37:13;;;;;;;14.60;3.37;;;;;;;18.89;57.44;99808.44;5068787;28;20055;-67
2023/03/31 03:39:38;;;;;;;11.57;3.07;;;;;;;18.05;60.96;99797.47;5068051;28;20531;-68
2023/03/31 03:42:04;;;;;;;10.60;2.60;;;;;;;19.09;56.84;99778.94;5048021;28;20056;-67
2023/03/31 03:44:29;;;;;;;13.63;3.23;;;;;;;18.43;58.00;99773.19;5067838;28;20482;-68
2023/03/31 03:46:55;;;;;;;10.00;2.90;;;;;;;17.70;60.45;99759.81;5062069;28;20028;-68
2023/03/31 03:49:20;;;;;;;18.13;3.57;;;;;;;17.50;64.71;99755.63;5059136;28;20048;-68
2023/03/31 03:51:46;;;;;;;18.27;4.37;;;;;;;18.73;59.76;99755.56;5050122;28;20416;-67
2023/03/31 03:54:11;;;;;;;16.47;4.27;;;;;;;17.98;60.76;99735.28;5050162;28;20040;-68
2023/03/31 03:56:37;;;;;;;16.97;4.97;;;;;;;18.36;60.26;99733.97;5069687;28;20032;-67
2023/03/31 03:59:03;;;;;;;12.47;4.57;;;;;;;18.50;60.11;99735.78;5068026;28;20043;-67
2023/03/31 04:01:29;;;;;;;17.40;4.87;;;;;;;18.00;62.81;99720.22;5052664;28;20036;-67
2023/03/31 04:03:54;;;;;;;17.17;4.20;;;;;;;17.13;67.53;99709.19;5068438;28;20086;-67
2023/03/31 04:06:20;;;;;;;17.37;4.13;;;;;;;18.13;62.82;99704.44;5052187;28;20515;-67
2023/03/31 04:08:45;;;;;;;17.20;2.97;;;;;;;17.74;63.01;99703.19;5069566;28;20032;-67
2023/03/31 04:11:16;;;;;;;15.17;3.10;;;;;;;18.45;62.26;99694.59;5069816;28;20078;-67
2023/03/31 04:13:42;;;;;;;20.50;3.17;;;;;;;17.05;65.02;99684.16;5053139;28;20101;-67
2023/03/31 04:16:08;;;;;;;14.13;3.47;;;;;;;17.03;66.38;99681.59;5051031;28;20136;-68
2023/03/31 04:18:35;;;;;;;14.47;3.40;;;;;;;17.84;63.15;99683.19;5071394;28;20107;-68
2023/03/31 04:21:04;;;;;;;15.87;4.07;;;;;;;17.85;63.77;99673.50;5051060;28;20036;-67
2023/03/31 04:23:41;;;;;;;12.73;3.73;;;;;;;17.72;64.19;99663.66;5051748;28;20115;-68
2023/03/31 04:26:07;;;;;;;18.87;3.73;;;;;;;17.66;64.76;99669.28;5051343;28;20044;-67
2023/03/31 04:28:34;;;;;;;11.20;3.10;;;;;;;17.42;65.72;99658.31;5051551;28;20039;-67
2023/03/31 04:31:08;;;;;;;15.47;2.90;;;;;;;17.67;64.95;99649.84;5050517;28;20030;-67
2023/03/31 04:33:37;;;;;;;19.07;3.70;;;;;;;17.26;66.46;99650.44;5069784;28;20028;-68
2023/03/31 04:36:16;;;;;;;16.47;3.63;;;;;;;17.57;64.30;99648.66;5052561;28;20039;-68
2023/03/31 04:38:45;;;;;;;13.00;2.93;;;;;;;16.84;67.94;99636.84;5068361;28;20032;-68
2023/03/31 04:41:11;;;;;;;11.37;2.83;;;;;;;16.57;68.91;99636.59;5052801;28;20391;-68
2023/03/31 04:43:37;;;;;;;15.87;3.33;;;;;;;17.03;67.47;99628.78;5051704;28;20540;-68
2023/03/31 04:46:05;;;;;;;15.23;2.67;;;;;;;16.53;69.12;99619.22;5069209;28;20130;-68
2023/03/31 04:48:31;;;;;;;11.10;2.47;;;;;;;16.43;71.20;99609.16;5063717;28;20051;-68
2023/03/31 04:50:56;;;;;;;14.57;3.37;;;;;;;16.60;69.19;99605.59;5085173;28;20028;-67
2023/03/31 04:53:22;;;;;;;8.97;2.80;;;;;;;16.72;68.29;99606.72;5087078;28;20525;-67
2023/03/31 04:55:50;;;;;;;10.33;2.50;;;;;;;16.57;69.02;99595.22;5087405;28;20035;-68
2023/03/31 04:58:15;;;;;;;6.93;2.57;;;;;;;16.51;71.07;99594.72;5085633;28;20039;-67
2023/03/31 05:00:40;;;;;;;11.40;2.40;;;;;;;16.38;69.08;99595.38;5081089;28;20032;-68
2023/03/31 05:03:07;;;;;;;8.83;3.10;;;;;;;17.08;67.67;99584.53;5086571;28;20051;-69
2023/03/31 05:05:32;;;;;;;10.67;2.57;;;;;;;16.78;68.99;99585.28;5086463;28;20020;-68
2023/03/31 05:07:57;;;;;;;15.07;2.90;;;;;;;17.19;66.73;99581.28;5085187;28;20038;-68
2023/03/31 05:10:23;;;;;;;13.33;3.10;;;;;;;16.85;69.84;99582.31;5086985;28;20039;-68
2023/03/31 05:12:49;;;;;;;11.57;3.93;;;;;;;17.34;66.19;99574.25;5086190;28;20105;-67
2023/03/31 05:15:14;;;;;;;10.13;2.60;;;;;;;16.91;67.65;99568.78;5086814;28;20020;-68
2023/03/31 05:17:40;;;;;;;10.70;2.80;;;;;;;17.17;69.64;99566.44;5088484;28;20054;-71
2023/03/31 05:20:07;;;;;;;15.57;3.00;;;;;;;16.79;70.19;99557.13;5082080;28;20036;-66
2023/03/31 05:22:37;;;;;;;10.07;2.77;;;;;;;16.71;69.12;99559.34;5085881;28;20118;-69
2023/03/31 05:25:05;;;;;;;7.73;3.07;;;;;;;15.96;72.55;99562.44;5087480;28;20028;-69
2023/03/31 05:27:30;;;;;;;10.97;2.57;;;;;;;16.78;69.82;99556.25;5087518;28;20362;-69
2023/03/31 05:29:55;;;;;;;14.33;2.63;;;;;;;16.98;67.97;99561.38;5086538;28;20093;-69
2023/03/31 05:32:21;;;;;;;9.90;2.90;;;;;;;16.88;69.73;99540.75;5077899;28;20113;-69
2023/03/31 05:34:47;;;;;;;10.17;3.00;;;;;;;16.68;68.45;99536.59;5080960;28;20035;-69
2023/03/31 05:37:12;;;;;;;8.23;2.37;;;;;;;17.00;69.12;99539.22;5085961;28;20024;-69
2023/03/31 05:39:38;;;;;;;10.17;2.93;;;;;;;17.48;66.75;99527.72;5088825;28;20043;-68
2023/03/31 05:42:04;;;;;;;11.27;3.03;;;;;;;17.06;67.40;99538.91;5087720;28;20031;-69
2023/03/31 05:44:30;;;;;;;9.23;2.70;;;;;;;17.22;67.95;99549.41;5088123;28;20043;-69
2023/03/31 05:46:55;;;;;;;6.50;2.53;;;;;;;16.91;67.57;99543.25;5089215;28;20136;-69
2023/03/31 05:49:21;;;;;;;13.33;2.97;;;;;;;16.85;69.55;99524.25;5085447;28;20408;-69
2023/03/31 05:51:46;;;;;;;9.43;2.50;;;;;;;17.42;66.78;99519.19;5086777;28;20145;-69
2023/03/31 05:54:12;;;;;;;13.97;2.90;;;;;;;17.13;67.10;99524.41;5085535;28;20392;-68
2023/03/31 05:56:38;;;;;;;7.53;2.13;;;;;;;16.92;66.47;99526.47;5087790;28;20034;-68
2023/03/31 05:59:03;;;;;;;7.43;2.50;;;;;;;17.22;64.26;99517.72;5086906;28;20112;-68
2023/03/31 06:01:29;;;;;;;7.67;1.70;;;;;;;16.73;67.82;99515.22;5084460;28;20032;-69
2023/03/31 06:03:55;;;;;;;7.30;2.30;;;;;;;17.04;65.69;99514.38;5086628;28;20146;-69
2023/03/31 06:06:21;;;;;;;9.20;1.97;;;;;;;16.89;66.95;99518.72;5075886;28;20433;-68
2023/03/31 06:08:47;;;;;;;6.07;1.43;;;;;;;17.31;63.20;99516.34;5067274;28;20384;-68
2023/03/31 06:11:21;;;;;;;6.70;1.50;;;;;;;16.43;67.30;99516.88;5080008;28;20067;-69
2023/03/31 06:13:47;;;;;;;5.70;2.17;;;;;;;17.04;65.71;99522.28;5086977;28;20020;-68
2023/03/31 06:16:14;;;;;;;6.43;1.43;;;;;;;17.00;65.76;99518.13;5084330;28;20035;-69
2023/03/31 06:18:40;;;;;;;6.13;1.60;;;;;;;16.52;68.51;99512.03;5087581;28;20033;-69
2023/03/31 06:21:05;;;;;;;6.17;1.70;;;;;;;17.08;66.01;99510.59;5081685;28;20032;-69
2023/03/31 06:23:32;;;;;;;11.23;1.80;;;;;;;16.88;66.87;99508.22;5084971;28;20546;-69
2023/03/31 06:26:07;;;;;;;6.93;1.83;;;;;;;17.13;66.21;99503.28;5087670;28;20511;-69
2023/03/31 06:28:33;;;;;;;4.77;1.40;;;;;;;17.46;63.85;99494.31;5089143;28;20093;-69
2023/03/31 06:31:08;;;;;;;7.13;2.20;;;;;;;17.03;65.04;99504.72;5085931;28;20048;-69
2023/03/31 06:33:35;;;;;;;3.90;1.50;;;;;;;17.28;64.37;99490.09;5084227;28;20046;-69
2023/03/31 06:36:02;;;;;;;5.80;1.37;;;;;;;17.49;64.21;99497.69;5083414;28;20054;-69
2023/03/31 06:38:28;;;;;;;7.77;1.47;;;;;;;16.65;68.51;99497.22;5087169;28;20031;-69
2023/03/31 06:40:54;;;;;;;7.00;2.20;;;;;;;17.62;64.37;99482.81;5086538;28;20020;-69
2023/03/31 06:43:19;;;;;;;2.20;1.13;;;;;;;16.92;66.11;99483.41;5079013;28;20080;-69
2023/03/31 06:45:46;;;;;;;5.17;1.30;;;;;;;18.13;62.22;99479.69;5087278;28;20119;-69
2023/03/31 06:48:11;;;;;;;7.93;1.20;;;;;;;18.18;62.07;99463.56;5065633;28;20131;-68
2023/03/31 06:50:38;;;;;;;9.33;2.27;;;;;;;17.64;64.12;99465.06;5048123;28;20658;-69
2023/03/31 06:53:09;;;;;;;7.83;2.13;;;;;;;17.17;66.02;99469.59;5065954;28;20064;-68
2023/03/31 06:55:36;;;;;;;3.63;1.70;;;;;;;17.62;65.79;99461.66;5050755;28;20059;-68
2023/03/31 06:58:02;;;;;;;8.73;1.97;;;;;;;17.37;64.58;99457.88;5066016;28;20032;-69
2023/03/31 07:00:27;;;;;;;11.53;2.03;;;;;;;16.95;65.50;99448.91;5067460;28;20031;-68
2023/03/31 07:02:53;;;;;;;9.13;2.20;;;;;;;17.78;63.67;99459.78;5068709;28;20037;-69
2023/03/31 07:05:25;;;;;;;6.93;2.30;;;;;;;16.69;67.84;99460.94;5047072;28;20032;-69
2023/03/31 07:07:52;;;;;;;8.57;2.83;;;;;;;17.18;68.50;99449.34;5066725;28;20527;-68
2023/03/31 07:10:17;;;;;;;8.63;2.57;;;;;;;17.69;65.59;99447.13;5060810;28;20478;-68
2023/03/31 07:12:42;;;;;;;7.50;2.17;;;;;;;17.49;65.53;99450.13;5048663;28;20036;-69
2023/03/31 07:15:08;;;;;;;8.13;2.73;;;;;;;17.62;66.56;99445.81;5047384;28;20036;-68
2023/03/31 07:17:33;;;;;;;9.57;2.50;;;;;;;17.91;64.30;99441.38;5046162;28;20488;-68
2023/03/31 07:19:59;;;;;;;5.97;2.33;;;;;;;16.78;70.58;99450.69;5035159;28;20118;-69
2023/03/31 07:22:25;;;;;;;8.83;2.73;;;;;;;17.52;69.17;99449.97;5040035;28;20028;-68
2023/03/31 07:24:50;;;;;;;8.20;2.40;;;;;;;17.69;65.30;99438.38;5048867;28;20169;-68
2023/03/31 07:27:15;;;;;;;8.17;2.60;;;;;;;18.05;63.06;99426.47;5049080;28;20024;-69
2023/03/31 07:29:41;;;;;;;11.17;2.90;;;;;;;17.67;65.30;99435.81;5067410;28;20441;-68
2023/03/31 07:32:06;;;;;;;9.40;3.00;;;;;;;17.81;65.53;99441.06;5048624;28;20365;-68
2023/03/31 07:34:31;;;;;;;10.10;3.47;;;;;;;18.73;60.16;99433.50;5067374;28;20032;-68
2023/03/31 07:36:57;;;;;;;9.97;3.03;;;;;;;17.91;63.89;99419.38;5067952;28;20028;-69
2023/03/31 07:39:22;;;;;;;11.03;3.57;;;;;;;17.63;65.86;99427.22;5068019;28;20028;-69
2023/03/31 07:41:47;;;;;;;13.57;2.73;;;;;;;18.92;61.01;99432.34;5066203;28;20032;-73
2023/03/31 07:44:14;;;;;;;11.20;3.37;;;;;;;18.14;65.59;99426.72;5067939;28;20028;-68
2023/03/31 07:46:40;;;;;;;16.77;3.97;;;;;;;18.72;61.59;99429.16;5049471;28;20060;-68
2023/03/31 07:49:06;;;;;;;17.70;3.13;;;;;;;18.24;64.03;99426.13;5067027;28;20095;-69
2023/03/31 07:51:32;;;;;;;15.30;3.00;;;;;;;18.33;63.91;99420.25;5067485;28;20086;-69
2023/03/31 07:53:58;;;;;;;13.60;3.03;;;;;;;18.04;64.21;99422.09;5049009;28;20036;-69
2023/03/31 07:56:24;;;;;;;11.60;3.30;;;;;;;17.59;67.03;99424.88;5067644;28;20051;-68
2023/03/31 07:58:51;;;;;;;11.73;2.80;;;;;;;17.81;64.38;99409.38;5067799;28;20035;-68
2023/03/31 08:01:18;;;;;;;13.30;4.00;;;;;;;18.35;64.32;99407.75;5065958;28;20036;-69
2023/03/31 08:03:45;;;;;;;18.23;3.20;;;;;;;17.67;66.13;99406.75;5051915;28;20128;-69
2023/03/31 08:06:16;;;;;;;15.47;2.80;;;;;;;17.73;66.47;99401.06;5071523;28;20081;-69
2023/03/31 08:08:42;;;;;;;14.57;3.37;;;;;;;17.89;65.64;99400.97;5071262;28;20040;-68
2023/03/31 08:11:08;;;;;;;12.17;3.00;;;;;;;18.66;62.50;99397.84;5069873;28;20376;-68
2023/03/31 08:13:34;;;;;;;10.10;2.70;;;;;;;18.51;61.96;99385.63;5071679;28;20484;-69
2023/03/31 08:15:59;;;;;;;16.13;3.47;;;;;;;18.37;63.38;99386.50;5052585;28;20063;-69
2023/03/31 08:18:24;;;;;;;12.40;2.60;;;;;;;18.50;62.48;99389.22;5053277;28;20451;-69
2023/03/31 08:20:50;;;;;;;14.87;2.83;;;;;;;18.17;63.68;99387.81;5052441;28;20024;-69
2023/03/31 08:23:15;;;;;;;16.50;3.27;;;;;;;18.90;61.04;99373.34;5052281;28;20028;-68
2023/03/31 08:25:41;;;;;;;9.17;2.60;;;;;;;18.63;62.47;99388.28;5071666;28;20024;-69
2023/03/31 08:28:09;;;;;;;16.77;2.47;;;;;;;18.61;61.74;99386.69;5052486;28;20119;-69
2023/03/31 08:30:36;;;;;;;10.30;2.93;;;;;;;18.09;63.44;99386.53;5052297;28;20016;-68
2023/03/31 08:33:02;;;;;;;14.17;3.10;;;;;;;17.60;66.03;99379.03;5052099;28;20032;-68
2023/03/31 08:35:27;;;;;;;16.47;3.40;;;;;;;17.88;63.65;99366.72;5070928;28;20027;-69
2023/03/31 08:37:53;;;;;;;17.67;4.23;;;;;;;17.65;65.70;99363.72;5070209;28;20429;-69
2023/03/31 08:40:22;;;;;;;18.00;3.93;;;;;;;17.44;65.59;99358.81;5052616;28;20024;-68
2023/03/31 08:42:54;;;;;;;21.10;3.60;;;;;;;18.01;64.23;99359.72;5069836;28;20395;-69
2023/03/31 08:45:31;;;;;;;15.68;4.18;;;;;;;18.19;64.25;99354.19;5070736;28;20047;-68
2023/03/31 08:48:03;;;;;;;19.27;3.60;;;;;;;19.48;60.51;99361.38;5052624;28;20439;-68
2023/03/31 08:50:34;;;;;;;21.70;3.17;;;;;;;17.84;66.68;99357.28;5052324;28;20115;-67
2023/03/31 08:53:18;;;;;;;21.77;3.33;;;;;;;19.13;61.95;99348.78;5051900;28;20024;-67
2023/03/31 08:55:52;;;;;;;19.27;4.05;;;;;;;17.70;64.47;99345.78;5053024;28;20082;-67
2023/03/31 08:58:48;;;;;;;24.53;3.80;;;;;;;18.68;62.19;99356.22;5069772;28;20054;-67
2023/03/31 09:01:48;;;;;;;19.27;3.22;;;;;;;19.58;59.77;99332.41;5031382;28;20127;-67
2023/03/31 09:04:31;;;;;;;23.20;3.60;;;;;;;19.32;58.92;99340.41;5064044;28;20052;-67
2023/03/31 09:07:33;;;;;;;15.13;2.70;;;;;;;18.67;59.90;99354.56;5052456;28;20052;-68
2023/03/31 09:10:02;;;;;;;17.63;2.75;;;;;;;18.91;59.56;99336.16;5047976;28;20036;-67
2023/03/31 09:13:05;;;;;;;17.67;3.13;;;;;;;19.19;59.65;99350.16;5068157;28;20028;-68
2023/03/31 09:16:07;;;;;;;18.00;3.03;;;;;;;19.63;56.88;99337.38;5018816;28;20093;-67
2023/03/31 09:18:37;;;;;;;18.40;2.83;;;;;;;20.63;55.05;99329.22;5035492;28;20044;-68
2023/03/31 09:21:17;;;;;;;21.02;2.88;;;;;;;20.06;56.08;99333.44;5069325;28;20028;-68
2023/03/31 09:24:02;;;;;;;18.65;3.28;;;;;;;18.89;58.82;99329.28;5032913;28;20044;-67
2023/03/31 09:26:33;;;;;;;18.85;3.78;;;;;;;19.52;58.28;99324.06;5049078;28;20028;-68
2023/03/31 09:29:00;;;;;;;15.48;2.83;;;;;;;19.23;57.49;99324.31;5032009;28;20065;-67
2023/03/31 09:31:26;;;;;;;25.10;3.33;;;;;;;19.98;55.14;99323.41;5034343;28;20036;-67
2023/03/31 09:33:58;;;;;;;16.13;2.90;;;;;;;18.78;58.37;99309.66;5050672;28;20024;-68
2023/03/31 09:36:23;;;;;;;17.13;3.30;;;;;;;18.51;60.71;99316.84;5069797;28;20055;-68
2023/03/31 09:38:50;;;;;;;23.25;3.65;;;;;;;19.02;57.71;99316.06;5051935;28;20024;-67
2023/03/31 09:41:17;;;;;;;20.45;3.20;;;;;;;18.63;60.93;99305.44;5050035;28;20504;-68
2023/03/31 09:43:44;;;;;;;23.75;4.13;;;;;;;18.99;58.00;99307.38;5070409;28;20059;-68
2023/03/31 09:46:33;;;;;;;16.60;3.45;;;;;;;19.08;57.64;99303.25;5050645;28;20038;-67
2023/03/31 09:49:10;;;;;;;22.70;3.10;;;;;;;19.49;55.74;99307.44;5071548;28;20060;-68
2023/03/31 09:51:37;;;;;;;18.02;3.60;;;;;;;19.29;56.09;99297.41;5069196;28;20508;-67
2023/03/31 09:54:29;;;;;;;21.35;3.58;;;;;;;18.59;57.01;99293.34;5068796;28;20331;-67
2023/03/31 09:56:55;;;;;;;25.25;3.28;;;;;;;19.23;55.92;99292.53;5048316;28;20037;-67
2023/03/31 09:59:32;;;;;;;17.65;3.13;;;;;;;19.15;57.43;99287.75;5051201;28;20039;-68
2023/03/31 10:02:02;;;;;;;12.98;3.20;;;;;;;19.43;55.28;99275.22;5067813;28;20025;-68
2023/03/31 10:04:31;;;;;;;26.88;3.75;;;;;;;19.02;55.41;99293.06;5069433;28;20028;-67
2023/03/31 10:06:58;;;;;;;15.10;3.00;;;;;;;18.42;57.04;99287.41;5051396;28;20021;-67
2023/03/31 10:09:27;;;;;;;18.92;2.85;;;;;;;18.75;56.09;99286.06;5068249;28;20484;-67
2023/03/31 10:12:19;;;;;;;15.07;3.13;;;;;;;18.77;57.68;99286.78;5068380;28;20626;-67
2023/03/31 10:14:46;;;;;;;13.48;2.70;;;;;;;17.95;59.11;99283.47;5060543;28;20553;-67
2023/03/31 10:17:21;;;;;;;15.80;2.33;;;;;;;18.82;58.85;99289.13;5050936;28;20033;-68
2023/03/31 10:19:57;;;;;;;12.52;2.22;;;;;;;18.02;59.68;99274.16;5069028;28;20066;-68
2023/03/31 10:22:22;;;;;;;20.47;3.07;;;;;;;18.74;56.54;99265.84;5049110;28;20302;-67
2023/03/31 10:24:51;;;;;;;12.43;2.63;;;;;;;18.11;60.20;99273.56;5069115;28;20020;-68
2023/03/31 10:27:26;;;;;;;15.60;3.50;;;;;;;18.60;59.70;99268.56;5049955;28;20028;-69
2023/03/31 10:29:55;;;;;;;15.87;2.60;;;;;;;18.32;60.91;99281.03;5068078;28;20384;-69
2023/03/31 10:32:27;;;;;;;18.97;3.20;;;;;;;18.59;61.15;99277.47;5049883;28;20040;-69
2023/03/31 10:34:54;;;;;;;13.83;2.53;;;;;;;18.35;59.97;99277.31;5068079;28;20488;-69
2023/03/31 10:37:23;;;;;;;17.97;2.67;;;;;;;18.42;58.91;99281.25;5068270;28;20027;-68
2023/03/31 10:40:00;;;;;;;14.73;3.17;;;;;;;17.74;64.56;99283.88;5051016;28;20430;-67
2023/03/31 10:42:27;;;;;;;15.47;3.30;;;;;;;18.55;61.69;99278.66;5049091;28;20020;-67
2023/03/31 10:45:22;;;;;;;23.37;2.93;;;;;;;18.97;60.18;99292.53;5050751;28;20029;-67
2023/03/31 10:47:51;;;;;;;18.57;3.03;;;;;;;18.62;59.83;99267.50;5068725;28;20028;-67
2023/03/31 10:50:17;;;;;;;22.93;2.83;;;;;;;18.56;60.43;99272.38;5049857;28;20079;-67
2023/03/31 10:52:45;;;;;;;16.53;2.87;;;;;;;18.05;64.10;99279.28;5050287;28;20037;-67
2023/03/31 10:55:25;;;;;;;18.80;2.47;;;;;;;18.70;61.12;99269.66;5050589;28;20119;-67
2023/03/31 10:58:22;;;;;;;13.50;2.43;;;;;;;17.83;63.94;99268.38;5049931;28;20020;-68
2023/03/31 11:01:00;;;;;;;16.40;3.20;;;;;;;17.89;63.79;99262.69;5015154;28;20028;-68
2023/03/31 11:03:44;;;;;;;16.07;2.40;;;;;;;18.82;60.01;99260.88;5050356;28;20036;-67
2023/03/31 11:06:24;;;;;;;16.17;2.73;;;;;;;18.63;59.36;99260.44;5049977;28;20029;-68
2023/03/31 11:08:50;;;;;;;17.67;2.50;;;;;;;17.99;62.03;99253.22;5068567;28;20481;-67
2023/03/31 11:11:21;;;;;;;13.73;2.53;;;;;;;18.63;60.31;99237.47;5066459;28;20028;-67
2023/03/31 11:14:12;;;;;;;13.83;2.57;;;;;;;16.87;67.05;99258.47;5050462;28;20509;-68
2023/03/31 11:16:40;;;;;;;13.63;3.00;;;;;;;17.74;66.03;99244.22;5068777;28;20059;-67
2023/03/31 11:19:30;;;;;;;17.10;2.77;;;;;;;18.48;63.19;99238.53;5049214;28;20488;-68
2023/03/31 11:22:05;;;;;;;13.33;3.13;;;;;;;18.93;59.57;99238.09;5048742;28;20033;-68
2023/03/31 11:24:36;;;;;;;15.57;2.43;;;;;;;18.43;62.62;99235.34;5048813;28;20480;-68
2023/03/31 11:27:02;;;;;;;15.47;2.50;;;;;;;18.32;64.21;99228.13;5030653;28;20032;-68
2023/03/31 11:29:48;;;;;;;13.30;2.67;;;;;;;18.67;61.83;99235.47;5029920;28;20033;-68
2023/03/31 11:32:26;;;;;;;10.00;1.90;;;;;;;17.52;63.37;99234.22;5049462;28;20024;-67
2023/03/31 11:35:34;;;;;;;12.17;2.50;;;;;;;17.32;64.84;99238.09;5050113;28;20028;-67
2023/03/31 11:38:28;;;;;;;9.13;1.70;;;;;;;17.42;63.16;99235.72;5068531;28;20476;-68
2023/03/31 11:41:07;;;;;;;12.87;2.50;;;;;;;17.50;65.17;99235.25;5046632;28;20036;-68
2023/03/31 11:44:02;;;;;;;9.47;2.00;;;;;;;18.37;62.34;99230.44;5053894;28;20029;-68